Time;durP1;ratioP1;P1;durP2;ratioP2;P2;SDS_P1;SDS_P2;PMS_P1;PMS_P2;Temp;Humidity;BMP_temperature;BMP_pressure;BME280_temperature;BME280_humidity;BME280_pressure;Samples;Min_cycle;Max_cycle;Signal;HPM_P1;HPM_P2
2022/03/05 00:00:23;;;;;;;12.60;7.93;;;-0.80;99.90;;;;;;4893715;29;20052;-84
2022/03/05 00:02:58;;;;;;;14.73;8.10;;;-0.80;99.90;;;;;;4893273;29;20124;-84
2022/03/05 00:05:24;;;;;;;13.05;8.27;;;-0.90;99.90;;;;;;4876931;29;20056;-84
2022/03/05 00:07:49;;;;;;;18.17;8.48;;;-0.90;99.90;;;;;;4894312;29;20060;-85
2022/03/05 00:10:15;;;;;;;13.27;7.72;;;-1.00;99.90;;;;;;4893175;29;20112;-84
2022/03/05 00:12:51;;;;;;;16.42;8.32;;;-1.00;99.90;;;;;;4877010;29;20045;-84
2022/03/05 00:15:18;;;;;;;13.60;8.18;;;-1.00;99.90;;;;;;4877716;29;20060;-84
2022/03/05 00:17:44;;;;;;;15.10;8.75;;;-1.10;99.90;;;;;;4877485;29;20163;-84
2022/03/05 00:20:10;;;;;;;15.57;8.77;;;-1.00;99.90;;;;;;4877869;29;20096;-83
2022/03/05 00:22:36;;;;;;;13.55;8.52;;;-1.10;99.90;;;;;;4877487;29;20052;-84
2022/03/05 00:25:05;;;;;;;14.60;9.00;;;-1.10;99.90;;;;;;4893077;29;20052;-84
2022/03/05 00:27:34;;;;;;;14.70;8.45;;;-1.00;99.90;;;;;;4876961;29;20041;-83
2022/03/05 00:30:00;;;;;;;13.15;8.07;;;-1.00;99.90;;;;;;4893725;29;20092;-83
2022/03/05 00:32:28;;;;;;;14.10;8.38;;;-1.10;99.90;;;;;;4892737;29;20543;-84
2022/03/05 00:35:07;;;;;;;15.45;8.55;;;-1.00;99.90;;;;;;4878148;29;20052;-83
2022/03/05 00:37:35;;;;;;;17.30;9.00;;;-1.10;99.90;;;;;;4877875;29;20048;-84
2022/03/05 00:40:01;;;;;;;15.00;8.63;;;-1.20;99.90;;;;;;4877011;29;20044;-84
2022/03/05 00:42:26;;;;;;;17.25;8.25;;;-0.20;99.90;;;;;;4907226;29;20045;-83
2022/03/05 00:45:01;;;;;;;19.00;8.80;;;-1.00;99.90;;;;;;4893170;29;20071;-84
2022/03/05 00:47:34;;;;;;;16.45;8.68;;;-0.40;99.90;;;;;;4892658;29;20048;-84
2022/03/05 00:50:00;;;;;;;14.40;8.50;;;-1.00;99.90;;;;;;4892401;29;20048;-83
2022/03/05 00:52:40;;;;;;;16.05;8.40;;;-1.10;99.90;;;;;;4876941;29;20405;-83
2022/03/05 00:55:18;;;;;;;16.42;8.85;;;-1.10;99.90;;;;;;4876951;29;20049;-84
2022/03/05 00:57:53;;;;;;;14.55;9.07;;;-1.10;99.90;;;;;;4876063;29;20048;-84
2022/03/05 01:00:31;;;;;;;14.57;8.77;;;-1.20;99.90;;;;;;4876307;29;20060;-85
2022/03/05 01:03:03;;;;;;;14.98;8.48;;;-0.20;99.90;;;;;;4877123;29;20091;-85
2022/03/05 01:05:29;;;;;;;12.82;8.18;;;-0.40;99.90;;;;;;4877503;29;20096;-84
2022/03/05 01:07:55;;;;;;;12.52;8.38;;;-1.30;99.90;;;;;;4876492;29;20052;-85
2022/03/05 01:10:20;;;;;;;13.70;8.43;;;-1.20;99.90;;;;;;4876494;29;20083;-85
2022/03/05 01:12:55;;;;;;;12.95;8.15;;;-0.70;99.90;;;;;;4876894;29;20124;-85
2022/03/05 01:15:27;;;;;;;14.85;8.52;;;-1.50;99.90;;;;;;4891765;29;20048;-84
2022/03/05 01:17:52;;;;;;;14.95;8.18;;;-1.50;99.90;;;;;;4876948;29;20051;-84
2022/03/05 01:20:29;;;;;;;15.77;9.00;;;-0.50;99.90;;;;;;4892646;29;20131;-85
2022/03/05 01:23:01;;;;;;;12.40;8.18;;;-1.50;99.90;;;;;;4892465;29;20044;-85
2022/03/05 01:25:38;;;;;;;13.93;8.52;;;-1.80;99.90;;;;;;4907540;29;20049;-85
2022/03/05 01:28:13;;;;;;;12.68;8.32;;;-1.60;99.90;;;;;;4907671;29;20056;-85
2022/03/05 01:30:47;;;;;;;15.05;8.63;;;-0.50;99.90;;;;;;4908520;29;20052;-84
2022/03/05 01:33:28;;;;;;;15.57;8.82;;;-2.30;99.90;;;;;;4891544;29;20056;-85
2022/03/05 01:35:59;;;;;;;13.43;8.43;;;-2.20;99.90;;;;;;4907247;29;20056;-85
2022/03/05 01:38:25;;;;;;;15.20;9.68;;;-1.70;99.90;;;;;;4908158;29;20044;-85
2022/03/05 01:41:06;;;;;;;13.27;8.82;;;-1.30;99.90;;;;;;4907819;29;20059;-84
2022/03/05 01:43:57;;;;;;;16.98;9.48;;;-1.50;99.90;;;;;;4890925;29;20543;-84
2022/03/05 01:46:51;;;;;;;14.75;9.10;;;-0.50;99.90;;;;;;4891721;29;20064;-84
2022/03/05 01:49:17;;;;;;;13.88;8.65;;;-1.70;99.90;;;;;;4876186;29;20201;-85
2022/03/05 01:51:46;;;;;;;15.65;9.23;;;-1.30;99.90;;;;;;4908096;29;20087;-85
2022/03/05 01:54:12;;;;;;;14.30;8.93;;;-1.10;99.90;;;;;;4892418;29;20056;-84
2022/03/05 01:56:39;;;;;;;15.50;8.98;;;-1.80;99.90;;;;;;4891181;29;20127;-84
2022/03/05 01:59:08;;;;;;;14.90;9.15;;;-1.80;99.90;;;;;;4891896;29;20193;-84
2022/03/05 02:01:40;;;;;;;15.00;9.43;;;-1.80;99.90;;;;;;4907836;29;20044;-84
2022/03/05 02:04:15;;;;;;;15.33;9.57;;;-0.70;99.90;;;;;;4907242;29;20071;-84
2022/03/05 02:06:44;;;;;;;16.83;9.43;;;-1.80;99.90;;;;;;4908314;29;20064;-85
2022/03/05 02:09:10;;;;;;;16.23;9.55;;;-1.30;99.90;;;;;;4891915;29;20052;-82
2022/03/05 02:11:46;;;;;;;15.13;9.63;;;-1.90;99.90;;;;;;4899802;29;20045;-84
2022/03/05 02:14:17;;;;;;;15.55;9.45;;;-1.90;99.90;;;;;;4875574;29;20429;-83
2022/03/05 02:16:49;;;;;;;17.23;9.55;;;-1.90;99.90;;;;;;4877384;29;20552;-84
2022/03/05 02:19:29;;;;;;;17.45;10.02;;;-2.10;99.90;;;;;;4899702;29;20139;-84
2022/03/05 02:21:58;;;;;;;14.18;8.75;;;-1.80;99.90;;;;;;4898804;29;20091;-83
2022/03/05 02:24:32;;;;;;;15.05;9.30;;;-1.70;99.90;;;;;;4882046;29;20549;-83
2022/03/05 02:27:10;;;;;;;16.77;10.00;;;-1.50;99.90;;;;;;4900040;29;20055;-84
2022/03/05 02:29:45;;;;;;;19.25;9.60;;;-0.70;99.90;;;;;;4885605;29;20056;-84
2022/03/05 02:32:28;;;;;;;17.70;9.18;;;-1.70;99.90;;;;;;4884765;29;20037;-84
2022/03/05 02:35:00;;;;;;;;;;;-1.80;99.90;;;;;;4895417;29;20045;-84
2022/03/05 02:37:32;;;;;;;15.95;9.98;;;-1.90;99.90;;;;;;4895036;29;19991;-83
2022/03/05 02:40:07;;;;;;;18.90;9.77;;;-1.30;99.90;;;;;;4910644;29;20052;-84
2022/03/05 02:42:39;;;;;;;17.00;9.57;;;-1.90;99.90;;;;;;4909939;29;20481;-84
2022/03/05 02:45:30;;;;;;;16.30;10.32;;;-1.40;99.90;;;;;;4894604;29;20049;-84
2022/03/05 02:47:55;;;;;;;20.45;10.48;;;-2.00;99.90;;;;;;4895067;29;20044;-84
2022/03/05 02:50:27;;;;;;;16.23;10.23;;;-0.30;99.90;;;;;;4879557;29;20055;-84
2022/03/05 02:53:03;;;;;;;16.52;9.85;;;-2.00;99.90;;;;;;4878375;29;20040;-83
2022/03/05 02:55:35;;;;;;;15.57;9.77;;;-1.30;99.90;;;;;;4895036;29;20063;-84
2022/03/05 02:58:10;;;;;;;15.80;9.60;;;-1.40;99.90;;;;;;4878772;29;20045;-83
2022/03/05 03:00:42;;;;;;;15.85;9.15;;;-2.10;99.90;;;;;;4878679;29;20040;-84
2022/03/05 03:03:18;;;;;;;18.80;9.87;;;-2.10;99.90;;;;;;4878624;29;20040;-83
2022/03/05 03:05:49;;;;;;;12.88;9.25;;;-0.90;99.90;;;;;;4895160;29;20052;-84
2022/03/05 03:08:14;;;;;;;15.77;9.75;;;-1.90;99.90;;;;;;4877783;29;20080;-84
2022/03/05 03:10:40;;;;;;;14.90;9.20;;;-2.30;99.90;;;;;;4894837;29;20080;-84
2022/03/05 03:13:06;;;;;;;15.82;9.07;;;-2.00;99.90;;;;;;4893425;29;20136;-84
2022/03/05 03:15:41;;;;;;;13.13;8.88;;;-2.10;99.90;;;;;;4894337;29;20123;-83
2022/03/05 03:18:19;;;;;;;15.73;9.15;;;-2.10;99.90;;;;;;4878631;29;20057;-83
2022/03/05 03:21:00;;;;;;;19.42;9.30;;;-2.10;99.90;;;;;;4878337;29;20059;-84
2022/03/05 03:23:41;;;;;;;16.55;9.48;;;-2.10;99.90;;;;;;4879215;29;20080;-84
2022/03/05 03:26:12;;;;;;;16.48;8.93;;;-1.90;99.90;;;;;;4878981;29;20156;-83
2022/03/05 03:28:50;;;;;;;15.10;9.52;;;-2.00;99.90;;;;;;4878351;29;20438;-84
2022/03/05 03:31:15;;;;;;;14.68;9.48;;;-2.00;99.90;;;;;;4878452;29;20051;-83
2022/03/05 03:33:41;;;;;;;17.75;8.80;;;-2.10;99.90;;;;;;4894564;29;20048;-84
2022/03/05 03:36:19;;;;;;;13.85;8.52;;;-2.10;99.90;;;;;;4893616;29;20060;-83
2022/03/05 03:39:02;;;;;;;16.77;9.13;;;-1.80;99.90;;;;;;4894666;29;20397;-84
2022/03/05 03:41:40;;;;;;;14.75;8.30;;;-2.00;99.90;;;;;;4877435;29;20056;-84
2022/03/05 03:44:06;;;;;;;14.68;8.45;;;-1.90;99.90;;;;;;4889096;29;20072;-83
2022/03/05 03:46:41;;;;;;;14.40;8.68;;;-2.00;99.90;;;;;;4897006;29;20060;-84
2022/03/05 03:49:18;;;;;;;14.43;8.27;;;-1.90;99.90;;;;;;4896301;29;20079;-84
2022/03/05 03:51:51;;;;;;;15.80;8.48;;;-1.80;99.90;;;;;;4881405;29;20094;-84
2022/03/05 03:54:25;;;;;;;15.57;8.40;;;-1.50;99.90;;;;;;4880874;29;20135;-83
2022/03/05 03:57:00;;;;;;;14.68;8.20;;;-2.00;99.90;;;;;;4896023;29;20048;-83
2022/03/05 03:59:26;;;;;;;17.15;8.27;;;-2.20;99.90;;;;;;4896651;29;20052;-84
2022/03/05 04:01:51;;;;;;;14.07;8.63;;;-2.30;99.90;;;;;;4912300;29;20059;-83
2022/03/05 04:04:20;;;;;;;12.70;7.88;;;-0.80;99.90;;;;;;4896150;29;20044;-83
2022/03/05 04:09:36;;;;;;;13.75;7.93;;;-2.30;99.90;;;;;;4896047;29;20463;-84
2022/03/05 04:12:14;;;;;;;12.57;7.65;;;-2.20;99.90;;;;;;4896638;29;20142;-84
2022/03/05 04:14:49;;;;;;;15.27;8.40;;;-2.30;99.90;;;;;;4897304;29;20050;-84
2022/03/05 04:17:18;;;;;;;13.85;7.57;;;-2.20;99.90;;;;;;4895915;29;20083;-84
2022/03/05 04:19:46;;;;;;;18.98;8.32;;;-1.20;99.90;;;;;;4897160;29;20139;-84
2022/03/05 04:22:12;;;;;;;16.48;8.27;;;-2.20;99.90;;;;;;4912229;29;20052;-83
2022/03/05 04:24:38;;;;;;;16.98;8.13;;;-2.30;99.90;;;;;;4941303;23;20522;-83
2022/03/05 04:27:09;;;;;;;13.20;8.20;;;-2.30;99.90;;;;;;4917801;29;20138;-84
2022/03/05 04:29:39;;;;;;;14.75;7.35;;;-0.90;99.90;;;;;;4918657;29;20450;-83
2022/03/05 04:32:16;;;;;;;13.75;8.52;;;-2.00;99.90;;;;;;4917814;29;20047;-84
2022/03/05 04:34:42;;;;;;;12.98;8.07;;;-2.50;99.90;;;;;;4918857;29;20126;-84
2022/03/05 04:37:08;;;;;;;12.05;7.22;;;-1.10;99.90;;;;;;4918161;29;20543;-84
2022/03/05 04:39:34;;;;;;;12.00;7.65;;;-2.70;99.90;;;;;;4933899;29;20058;-84
2022/03/05 04:41:59;;;;;;;13.40;7.13;;;-2.10;99.90;;;;;;4923995;29;20048;-83
2022/03/05 04:44:25;;;;;;;12.05;7.05;;;-2.40;99.90;;;;;;4899313;29;20400;-84
2022/03/05 04:46:59;;;;;;;13.55;7.07;;;-2.40;99.90;;;;;;4914687;29;20085;-83
2022/03/05 04:49:28;;;;;;;12.80;6.95;;;-2.40;99.90;;;;;;4915051;29;20138;-83
2022/03/05 04:51:54;;;;;;;12.50;8.02;;;-2.50;99.90;;;;;;4914682;29;20036;-83
2022/03/05 04:54:20;;;;;;;12.15;7.28;;;-2.40;99.90;;;;;;4915357;29;20070;-84
2022/03/05 04:56:46;;;;;;;11.35;6.70;;;-2.30;99.90;;;;;;4914458;29;20399;-85
2022/03/05 04:59:12;;;;;;;14.85;8.77;;;-2.50;99.90;;;;;;4914491;29;20047;-84
2022/03/05 05:01:38;;;;;;;14.52;6.47;;;-2.40;99.90;;;;;;4915495;29;20047;-84
2022/03/05 05:04:04;;;;;;;13.13;7.38;;;-2.30;99.90;;;;;;4915207;29;20515;-83
2022/03/05 05:06:29;;;;;;;13.60;7.05;;;-2.40;99.90;;;;;;4914694;29;20066;-84
2022/03/05 05:08:55;;;;;;;13.52;7.82;;;-2.30;99.90;;;;;;4914805;29;20051;-83
2022/03/05 05:11:21;;;;;;;12.75;7.00;;;-1.90;99.90;;;;;;4914327;29;20055;-83
2022/03/05 05:13:47;;;;;;;12.43;7.35;;;-2.30;99.90;;;;;;4914439;29;20047;-84
2022/03/05 05:16:12;;;;;;;12.45;6.75;;;-2.20;99.90;;;;;;4914725;29;20504;-84
2022/03/05 05:18:38;;;;;;;13.85;7.65;;;-2.40;99.90;;;;;;4915004;29;20051;-83
2022/03/05 05:21:04;;;;;;;14.65;8.00;;;-2.30;99.90;;;;;;4897759;29;20564;-84
2022/03/05 05:23:29;;;;;;;12.45;7.22;;;-2.30;99.90;;;;;;4915060;29;20048;-83
2022/03/05 05:25:56;;;;;;;13.88;7.45;;;-1.70;99.90;;;;;;4914655;29;20512;-83
2022/03/05 05:28:30;;;;;;;15.23;7.00;;;-2.60;99.90;;;;;;4913294;29;20047;-84
2022/03/05 05:31:08;;;;;;;18.75;7.50;;;-2.20;99.90;;;;;;4914114;29;20043;-83
2022/03/05 05:33:34;;;;;;;14.15;7.35;;;-2.40;99.90;;;;;;4914558;29;20404;-83
2022/03/05 05:36:00;;;;;;;12.27;7.15;;;-2.30;99.90;;;;;;4913731;29;20115;-83
2022/03/05 05:38:34;;;;;;;12.98;7.00;;;-2.30;99.90;;;;;;4914454;29;20044;-82
2022/03/05 05:41:06;;;;;;;13.70;7.60;;;-2.30;99.90;;;;;;4913705;29;20114;-82
2022/03/05 05:43:34;;;;;;;15.52;7.97;;;-1.90;99.90;;;;;;4914337;29;20496;-82
2022/03/05 05:46:00;;;;;;;15.25;7.60;;;-2.20;99.90;;;;;;4914373;29;20079;-82
2022/03/05 05:48:38;;;;;;;13.23;8.10;;;-2.40;99.90;;;;;;4914162;29;20079;-83
2022/03/05 05:51:04;;;;;;;13.10;7.68;;;-2.30;99.90;;;;;;4914238;29;20061;-83
2022/03/05 05:53:30;;;;;;;13.02;7.25;;;-2.30;99.90;;;;;;4913957;29;20122;-83
2022/03/05 05:55:55;;;;;;;16.33;8.20;;;-2.30;99.90;;;;;;4913748;29;20129;-83
2022/03/05 05:58:22;;;;;;;11.52;7.68;;;-2.40;99.90;;;;;;4913278;29;20063;-83
2022/03/05 06:00:48;;;;;;;17.95;7.63;;;-2.40;99.90;;;;;;4914311;29;20057;-83
2022/03/05 06:03:13;;;;;;;11.90;7.50;;;-2.40;99.90;;;;;;4913567;29;20043;-83
2022/03/05 06:05:39;;;;;;;15.15;7.95;;;-2.40;99.90;;;;;;4914227;29;20107;-83
2022/03/05 06:08:18;;;;;;;14.15;7.53;;;-2.40;99.90;;;;;;4914004;29;20039;-83
2022/03/05 06:10:43;;;;;;;13.45;7.03;;;-2.50;99.90;;;;;;4914730;28;20408;-82
2022/03/05 06:13:09;;;;;;;17.17;7.88;;;-2.50;99.90;;;;;;4917469;29;20047;-83
2022/03/05 06:15:38;;;;;;;16.15;7.80;;;-2.60;99.90;;;;;;4917700;29;20407;-82
2022/03/05 06:18:11;;;;;;;12.25;7.57;;;-1.90;99.90;;;;;;4917142;29;20051;-83
2022/03/05 06:20:36;;;;;;;;;;;-2.50;99.90;;;;;;4918801;29;20384;-83
2022/03/05 06:23:05;;;;;;;15.35;8.35;;;-2.40;99.90;;;;;;4916832;29;20013;-83
2022/03/05 06:25:34;;;;;;;12.90;7.80;;;-2.40;99.90;;;;;;4902173;29;20055;-82
2022/03/05 06:28:00;;;;;;;12.88;8.27;;;-1.40;99.90;;;;;;4917177;29;20103;-83
2022/03/05 06:30:25;;;;;;;16.30;8.23;;;-2.50;99.90;;;;;;4916720;29;20039;-83
2022/03/05 06:32:51;;;;;;;15.05;8.90;;;-2.40;99.90;;;;;;4917879;29;20048;-82
2022/03/05 06:35:22;;;;;;;16.60;8.40;;;-2.40;99.90;;;;;;4917361;29;20048;-83
2022/03/05 06:38:00;;;;;;;13.45;8.45;;;-1.80;99.90;;;;;;4916896;29;20159;-82
2022/03/05 06:40:41;;;;;;;14.82;8.02;;;-1.20;99.90;;;;;;4917110;29;20048;-82
2022/03/05 06:43:07;;;;;;;13.93;8.63;;;-1.40;99.90;;;;;;4919640;29;20043;-82
2022/03/05 06:45:33;;;;;;;13.30;8.45;;;-2.40;99.90;;;;;;4919966;29;20039;-83
2022/03/05 06:48:09;;;;;;;13.15;8.55;;;-1.70;99.90;;;;;;4919911;29;20491;-82
2022/03/05 06:50:35;;;;;;;17.02;8.27;;;-1.70;99.90;;;;;;4920558;29;20039;-83
2022/03/05 06:53:16;;;;;;;17.67;8.68;;;-2.30;99.90;;;;;;4919535;29;20113;-83
2022/03/05 06:55:42;;;;;;;13.70;8.32;;;-2.30;99.90;;;;;;4935949;29;20061;-84
2022/03/05 06:58:17;;;;;;;14.80;8.80;;;-2.60;99.90;;;;;;4918907;29;20542;-84
2022/03/05 07:00:43;;;;;;;16.25;9.15;;;-2.20;99.90;;;;;;4920098;29;20102;-82
2022/03/05 07:03:18;;;;;;;17.77;9.43;;;-2.20;99.90;;;;;;4919603;29;20130;-83
2022/03/05 07:05:44;;;;;;;15.68;8.70;;;-2.10;99.90;;;;;;4919345;29;20057;-83
2022/03/05 07:08:09;;;;;;;14.90;9.40;;;-2.00;99.90;;;;;;4934751;29;20043;-84
2022/03/05 07:10:35;;;;;;;15.40;8.90;;;-1.90;99.90;;;;;;4935079;29;20051;-83
2022/03/05 07:13:01;;;;;;;14.40;8.75;;;-1.80;99.90;;;;;;4931774;29;20136;-84
2022/03/05 07:15:26;;;;;;;14.52;8.57;;;-1.70;99.90;;;;;;4934584;29;20502;-83
2022/03/05 07:17:53;;;;;;;16.73;10.05;;;-1.60;99.90;;;;;;4919118;29;20039;-83
2022/03/05 07:20:20;;;;;;;15.23;8.85;;;-0.30;99.90;;;;;;4917567;29;20047;-84
2022/03/05 07:22:46;;;;;;;16.35;9.10;;;-1.40;99.90;;;;;;4934390;29;20082;-83
2022/03/05 07:25:12;;;;;;;15.07;9.27;;;-1.40;99.90;;;;;;4931293;29;20095;-84
2022/03/05 07:28:03;;;;;;;14.25;9.05;;;-1.30;99.90;;;;;;4931095;29;20090;-84
2022/03/05 07:30:29;;;;;;;14.25;9.73;;;-1.20;99.90;;;;;;4913118;29;20044;-83
2022/03/05 07:32:55;;;;;;;15.68;9.57;;;-1.10;99.90;;;;;;4928717;29;20502;-83
2022/03/05 07:35:20;;;;;;;16.52;9.75;;;-1.10;99.90;;;;;;4896963;29;20053;-84
2022/03/05 07:37:46;;;;;;;15.73;9.35;;;-1.00;99.90;;;;;;4913559;29;20480;-84
2022/03/05 07:40:12;;;;;;;17.27;9.40;;;0.20;99.90;;;;;;4896611;29;20107;-85
2022/03/05 07:42:41;;;;;;;16.52;9.40;;;-0.90;99.90;;;;;;4896344;29;20086;-84
2022/03/05 07:45:22;;;;;;;18.08;9.63;;;-0.80;99.90;;;;;;4897376;29;20400;-84
2022/03/05 07:47:48;;;;;;;16.98;9.32;;;-0.80;99.90;;;;;;4896799;29;20048;-85
2022/03/05 07:50:19;;;;;;;17.35;9.27;;;0.10;99.90;;;;;;4929077;29;20055;-85
2022/03/05 07:52:48;;;;;;;17.10;9.60;;;0.70;99.90;;;;;;4897784;29;20040;-85
2022/03/05 07:55:16;;;;;;;19.05;9.48;;;1.50;99.90;;;;;;4928518;29;20040;-85
2022/03/05 07:57:42;;;;;;;16.63;10.13;;;0.80;99.90;;;;;;4912465;29;20056;-84
2022/03/05 08:00:14;;;;;;;15.75;9.43;;;-0.40;99.90;;;;;;4928604;29;20579;-84
2022/03/05 08:02:40;;;;;;;14.77;9.70;;;-0.30;99.90;;;;;;4912588;29;20429;-84
2022/03/05 08:05:06;;;;;;;17.35;8.93;;;-0.30;99.90;;;;;;4928936;29;20092;-85
2022/03/05 08:07:35;;;;;;;15.02;9.45;;;-0.20;99.90;;;;;;4928858;29;20048;-86
2022/03/05 08:10:01;;;;;;;15.70;8.80;;;1.20;99.90;;;;;;4896623;29;20055;-84
2022/03/05 08:12:30;;;;;;;16.02;8.65;;;-0.10;99.90;;;;;;4906642;29;20105;-85
2022/03/05 08:14:55;;;;;;;16.92;9.25;;;0.20;99.90;;;;;;4926910;29;20094;-86
2022/03/05 08:17:24;;;;;;;15.85;9.32;;;-0.10;99.90;;;;;;4930965;29;20091;-86
2022/03/05 08:19:53;;;;;;;14.85;8.98;;;1.00;99.90;;;;;;4931050;29;20074;-85
2022/03/05 08:22:19;;;;;;;14.45;8.20;;;0.00;99.90;;;;;;4899777;29;20051;-84
2022/03/05 08:24:44;;;;;;;15.82;9.15;;;0.20;99.90;;;;;;4914454;29;20082;-85
2022/03/05 08:27:10;;;;;;;14.25;8.90;;;1.70;99.90;;;;;;4914156;29;20574;-84
2022/03/05 08:29:36;;;;;;;14.75;8.70;;;0.30;99.90;;;;;;4930933;29;20082;-84
2022/03/05 08:32:02;;;;;;;18.30;9.45;;;1.20;99.90;;;;;;4914892;29;20083;-84
2022/03/05 08:34:37;;;;;;;14.73;9.63;;;0.40;99.90;;;;;;4914577;29;20087;-84
2022/03/05 08:37:03;;;;;;;15.85;9.25;;;0.50;99.90;;;;;;4913243;29;20052;-84
2022/03/05 08:39:28;;;;;;;14.20;9.02;;;0.60;99.90;;;;;;4913265;29;20059;-83
2022/03/05 08:42:10;;;;;;;14.77;9.40;;;0.60;99.90;;;;;;4899516;29;20091;-84
2022/03/05 08:44:35;;;;;;;22.10;10.32;;;1.20;99.90;;;;;;4926446;29;20503;-84
2022/03/05 08:47:01;;;;;;;16.63;9.32;;;0.80;99.90;;;;;;4908743;29;20123;-85
2022/03/05 08:49:27;;;;;;;13.63;9.05;;;0.90;99.90;;;;;;4914534;29;20680;-85
2022/03/05 08:51:53;;;;;;;15.48;10.27;;;0.90;99.90;;;;;;4898794;29;20445;-84
2022/03/05 08:54:20;;;;;;;16.48;9.38;;;1.00;99.90;;;;;;4930122;29;20044;-85
2022/03/05 08:56:47;;;;;;;17.50;10.00;;;1.00;99.90;;;;;;4913926;29;20099;-84
2022/03/05 08:59:12;;;;;;;16.42;9.82;;;2.00;99.90;;;;;;4912775;29;20044;-84
2022/03/05 09:01:58;;;;;;;19.55;10.27;;;1.20;99.90;;;;;;4898941;29;20059;-85
2022/03/05 09:04:28;;;;;;;15.27;9.60;;;2.20;99.90;;;;;;4913136;29;20066;-84
2022/03/05 09:06:53;;;;;;;21.92;10.55;;;2.40;99.90;;;;;;4929794;29;20542;-84
2022/03/05 09:09:19;;;;;;;15.48;9.35;;;1.50;99.90;;;;;;4929973;29;20063;-85
2022/03/05 09:11:45;;;;;;;15.18;9.88;;;1.70;99.90;;;;;;4929844;29;20439;-84
2022/03/05 09:14:11;;;;;;;16.95;9.57;;;1.50;99.90;;;;;;4913485;29;20058;-84
2022/03/05 09:16:38;;;;;;;22.27;9.80;;;1.60;99.90;;;;;;4930144;29;20043;-81
2022/03/05 09:19:05;;;;;;;18.60;9.70;;;2.10;99.90;;;;;;4929206;29;20057;-84
2022/03/05 09:21:31;;;;;;;20.50;10.27;;;1.80;99.90;;;;;;4914371;29;20456;-84
2022/03/05 09:24:00;;;;;;;20.85;11.82;;;1.90;99.90;;;;;;4913868;29;20056;-85
2022/03/05 09:26:26;;;;;;;21.35;11.50;;;1.90;99.90;;;;;;4912719;29;20047;-83
2022/03/05 09:28:57;;;;;;;18.02;10.90;;;2.00;99.90;;;;;;4913861;29;20502;-84
2022/03/05 09:31:23;;;;;;;20.60;11.23;;;3.10;99.90;;;;;;4904547;29;20055;-83
2022/03/05 09:33:48;;;;;;;17.80;10.13;;;2.20;99.90;;;;;;4894403;29;20048;-82
2022/03/05 09:36:14;;;;;;;17.58;11.20;;;2.20;99.90;;;;;;4894653;29;20048;-84
2022/03/05 09:38:40;;;;;;;18.67;10.82;;;2.30;99.90;;;;;;4895568;29;20079;-83
2022/03/05 09:41:07;;;;;;;20.60;11.27;;;2.40;99.90;;;;;;4925585;29;20052;-84
2022/03/05 09:43:34;;;;;;;21.17;10.68;;;3.50;99.90;;;;;;4910343;29;20048;-83
2022/03/05 09:46:01;;;;;;;17.98;10.77;;;2.40;99.90;;;;;;4910286;29;20051;-84
2022/03/05 09:48:28;;;;;;;18.08;10.90;;;2.50;99.90;;;;;;4893684;29;20059;-84
2022/03/05 09:51:01;;;;;;;20.23;11.00;;;2.60;99.90;;;;;;4910808;29;20485;-83
2022/03/05 09:53:29;;;;;;;19.85;10.80;;;2.60;99.90;;;;;;4894376;29;20492;-84
2022/03/05 09:55:54;;;;;;;30.23;10.63;;;2.60;99.90;;;;;;4893792;29;20048;-83
2022/03/05 09:58:20;;;;;;;18.88;11.05;;;2.70;99.90;;;;;;4894232;29;20052;-83
2022/03/05 10:00:46;;;;;;;17.55;10.25;;;2.70;99.90;;;;;;4895242;29;20780;-83
2022/03/05 10:03:22;;;;;;;20.42;10.65;;;3.40;99.90;;;;;;4894320;29;20052;-84
2022/03/05 10:05:48;;;;;;;19.27;10.20;;;2.80;99.90;;;;;;4895892;29;20100;-83
2022/03/05 10:08:15;;;;;;;16.75;10.85;;;2.80;99.90;;;;;;4910150;29;20044;-83
2022/03/05 10:10:52;;;;;;;18.20;10.77;;;2.90;99.90;;;;;;4911006;29;20143;-83
2022/03/05 10:13:20;;;;;;;18.60;10.77;;;3.00;99.90;;;;;;4912500;29;20054;-83
2022/03/05 10:15:47;;;;;;;20.73;11.27;;;3.00;99.90;;;;;;4913278;29;20052;-84
2022/03/05 10:18:12;;;;;;;15.00;9.80;;;3.10;99.90;;;;;;4929254;29;20048;-85
2022/03/05 10:20:50;;;;;;;16.42;10.07;;;3.10;99.90;;;;;;4914086;29;20511;-84
2022/03/05 10:23:18;;;;;;;24.40;11.45;;;3.20;99.90;;;;;;4912846;29;20519;-85
2022/03/05 10:25:45;;;;;;;19.05;10.98;;;3.30;99.90;;;;;;4913229;29;20051;-84
2022/03/05 10:28:14;;;;;;;19.45;11.13;;;3.30;99.90;;;;;;4896926;29;20187;-84
2022/03/05 10:30:43;;;;;;;19.33;10.95;;;3.40;99.90;;;;;;4913365;29;20055;-84
2022/03/05 10:33:24;;;;;;;18.20;10.55;;;3.50;99.90;;;;;;4919560;29;20046;-84
2022/03/05 10:35:50;;;;;;;19.90;11.25;;;3.70;99.90;;;;;;4927275;29;20044;-87
2022/03/05 10:38:16;;;;;;;20.50;11.52;;;3.60;99.90;;;;;;4927570;29;20043;-83
2022/03/05 10:40:42;;;;;;;20.88;11.18;;;3.60;99.90;;;;;;4912318;29;20397;-84
2022/03/05 10:43:08;;;;;;;22.25;12.27;;;3.70;99.90;;;;;;4928238;29;20047;-83
2022/03/05 10:45:53;;;;;;;22.50;11.70;;;3.70;99.90;;;;;;4913002;29;20053;-83
2022/03/05 10:48:27;;;;;;;18.23;11.50;;;3.80;99.90;;;;;;4928417;29;20457;-83
2022/03/05 10:50:59;;;;;;;21.60;12.18;;;3.80;99.90;;;;;;4903903;29;20054;-82
2022/03/05 10:53:37;;;;;;;22.30;12.63;;;3.90;99.90;;;;;;4927593;29;20044;-82
2022/03/05 10:56:22;;;;;;;24.23;11.63;;;3.90;99.90;;;;;;4912567;29;20054;-80
2022/03/05 10:59:05;;;;;;;21.75;11.57;;;4.00;99.90;;;;;;4923902;29;20503;-81
2022/03/05 11:01:33;;;;;;;16.55;10.18;;;4.00;99.90;;;;;;4917857;29;20048;-81
2022/03/05 11:03:59;;;;;;;19.15;10.68;;;4.10;99.90;;;;;;4897780;29;20519;-80
2022/03/05 11:06:27;;;;;;;19.00;11.35;;;4.10;99.90;;;;;;4928180;29;20048;-81
2022/03/05 11:08:56;;;;;;;15.60;10.75;;;4.40;99.90;;;;;;4898142;29;20083;-81
2022/03/05 11:11:22;;;;;;;25.17;10.98;;;4.20;99.90;;;;;;4911399;29;20040;-81
2022/03/05 11:13:48;;;;;;;18.27;11.20;;;4.20;99.90;;;;;;4912753;29;20055;-81
2022/03/05 11:16:14;;;;;;;19.88;11.23;;;4.30;99.90;;;;;;4911726;29;20401;-81
2022/03/05 11:18:40;;;;;;;17.75;11.10;;;4.40;99.90;;;;;;4912183;29;20048;-82
2022/03/05 11:21:07;;;;;;;18.75;12.00;;;4.40;99.90;;;;;;4913212;29;20044;-83
2022/03/05 11:23:35;;;;;;;19.95;11.57;;;4.50;99.90;;;;;;4913730;29;20040;-83
2022/03/05 11:26:02;;;;;;;20.55;12.10;;;5.50;99.90;;;;;;4914754;29;20118;-83
2022/03/05 11:28:36;;;;;;;19.10;11.63;;;4.60;99.90;;;;;;4914840;29;20055;-82
2022/03/05 11:31:13;;;;;;;18.90;11.93;;;4.60;99.90;;;;;;4919011;29;20051;-82
2022/03/05 11:33:39;;;;;;;20.33;12.52;;;4.60;99.90;;;;;;4934543;29;20562;-82
2022/03/05 11:36:06;;;;;;;19.80;12.13;;;4.70;99.90;;;;;;4934541;29;20058;-82
2022/03/05 11:38:33;;;;;;;18.38;10.40;;;4.80;99.90;;;;;;4919123;29;20086;-83
2022/03/05 11:40:59;;;;;;;16.60;10.40;;;4.80;99.90;;;;;;4934036;29;20043;-81
2022/03/05 11:43:26;;;;;;;20.40;11.45;;;4.60;99.90;;;;;;4934094;29;20058;-83
2022/03/05 11:46:02;;;;;;;17.92;11.27;;;4.90;99.90;;;;;;4919173;29;20053;-82
2022/03/05 11:48:32;;;;;;;18.50;12.07;;;5.00;99.90;;;;;;4917687;29;20047;-83
2022/03/05 11:51:10;;;;;;;19.55;11.65;;;5.00;99.90;;;;;;4918422;29;20591;-83
2022/03/05 11:53:36;;;;;;;25.05;11.75;;;5.10;99.90;;;;;;4918154;29;20051;-83
2022/03/05 11:56:22;;;;;;;17.05;11.10;;;5.70;99.90;;;;;;4918783;29;20391;-83
2022/03/05 11:58:48;;;;;;;17.35;10.75;;;5.80;99.90;;;;;;4935003;29;20109;-83
2022/03/05 12:01:33;;;;;;;18.05;11.25;;;5.20;99.90;;;;;;4933901;29;20558;-83
2022/03/05 12:04:03;;;;;;;18.40;10.85;;;5.10;99.90;;;;;;4918792;29;20043;-83
2022/03/05 12:06:42;;;;;;;21.30;11.55;;;5.20;99.90;;;;;;4918875;29;20058;-83
2022/03/05 12:09:43;;;;;;;18.70;11.43;;;5.20;99.90;;;;;;4917573;29;20986;-83
2022/03/05 12:12:15;;;;;;;19.65;11.00;;;5.30;99.90;;;;;;4919919;29;20150;-83
2022/03/05 12:15:01;;;;;;;17.47;11.13;;;5.30;99.90;;;;;;4915559;29;20079;-83
2022/03/05 12:17:33;;;;;;;18.33;11.82;;;5.40;99.90;;;;;;4915642;29;20055;-82
2022/03/05 12:19:59;;;;;;;16.55;10.98;;;5.40;99.90;;;;;;4931816;29;20432;-82
2022/03/05 12:22:24;;;;;;;24.02;11.13;;;6.10;99.90;;;;;;4914409;29;20051;-83
2022/03/05 12:24:50;;;;;;;16.90;10.43;;;5.40;99.90;;;;;;4915549;29;20059;-82
2022/03/05 12:27:17;;;;;;;19.00;10.60;;;5.80;99.90;;;;;;4914187;29;20106;-84
2022/03/05 12:29:49;;;;;;;18.65;11.18;;;5.40;99.90;;;;;;4913770;29;20082;-82
2022/03/05 12:32:15;;;;;;;18.02;11.00;;;5.50;99.90;;;;;;4914464;29;20106;-82
2022/03/05 12:34:41;;;;;;;21.27;12.88;;;5.60;99.90;;;;;;4914802;29;20103;-82
2022/03/05 12:37:08;;;;;;;22.80;14.95;;;5.60;99.90;;;;;;4913882;29;20054;-82
2022/03/05 12:39:40;;;;;;;31.23;18.90;;;5.60;99.90;;;;;;4914629;29;20054;-81
2022/03/05 12:42:06;;;;;;;38.70;22.75;;;5.70;99.90;;;;;;4914439;29;20051;-83
2022/03/05 12:44:34;;;;;;;42.95;25.33;;;5.80;99.90;;;;;;4913800;29;20551;-83
2022/03/05 12:47:00;;;;;;;32.70;18.15;;;5.80;99.90;;;;;;4930693;29;20518;-83
2022/03/05 12:49:25;;;;;;;21.92;14.18;;;5.80;99.90;;;;;;4914562;29;20039;-82
2022/03/05 12:51:51;;;;;;;21.05;13.82;;;5.80;99.90;;;;;;4929564;29;20110;-83
2022/03/05 12:54:17;;;;;;;18.00;11.57;;;5.80;99.90;;;;;;4898758;29;20499;-83